sensor_id;sensor_type;location;lat;lon;timestamp;pressure;altitude;pressure_sealevel;temperature;humidity
72961;BME280;61141;46.204;19.774;2023-04-30T00:02:33;100244.16;;;11.11;82.75
72961;BME280;61141;46.204;19.774;2023-04-30T00:05:37;100243.34;;;11.10;83.08
72961;BME280;61141;46.204;19.774;2023-04-30T00:08:40;100246.94;;;11.14;82.62
72961;BME280;61141;46.204;19.774;2023-04-30T00:11:43;100243.81;;;11.16;82.81
72961;BME280;61141;46.204;19.774;2023-04-30T00:14:46;100242.75;;;11.28;81.73
72961;BME280;61141;46.204;19.774;2023-04-30T00:17:48;100248.34;;;11.35;81.84
72961;BME280;61141;46.204;19.774;2023-04-30T00:20:51;100253.81;;;11.35;81.52
72961;BME280;61141;46.204;19.774;2023-04-30T00:23:55;100248.00;;;11.40;82.08
72961;BME280;61141;46.204;19.774;2023-04-30T00:26:58;100225.97;;;11.33;81.74
72961;BME280;61141;46.204;19.774;2023-04-30T00:30:01;100234.69;;;11.42;82.31
72961;BME280;61141;46.204;19.774;2023-04-30T00:33:05;100229.19;;;11.42;82.56
72961;BME280;61141;46.204;19.774;2023-04-30T00:36:08;100219.50;;;11.55;81.64
72961;BME280;61141;46.204;19.774;2023-04-30T00:39:11;100225.03;;;11.58;82.20
72961;BME280;61141;46.204;19.774;2023-04-30T00:42:14;100233.22;;;11.51;82.25
72961;BME280;61141;46.204;19.774;2023-04-30T00:45:17;100223.75;;;11.49;82.64
72961;BME280;61141;46.204;19.774;2023-04-30T00:48:24;100226.84;;;11.40;83.25
72961;BME280;61141;46.204;19.774;2023-04-30T00:51:28;100218.09;;;11.28;83.33
72961;BME280;61141;46.204;19.774;2023-04-30T00:54:31;100220.44;;;11.26;83.00
72961;BME280;61141;46.204;19.774;2023-04-30T00:57:34;100212.94;;;11.23;83.05
72961;BME280;61141;46.204;19.774;2023-04-30T01:00:38;100215.69;;;11.23;83.22
72961;BME280;61141;46.204;19.774;2023-04-30T01:03:41;100210.59;;;11.21;83.27
72961;BME280;61141;46.204;19.774;2023-04-30T01:06:45;100214.84;;;11.15;83.52
72961;BME280;61141;46.204;19.774;2023-04-30T01:09:48;100210.50;;;11.14;83.63
72961;BME280;61141;46.204;19.774;2023-04-30T01:16:14;100214.28;;;11.02;84.88
72961;BME280;61141;46.204;19.774;2023-04-30T01:22:53;100213.28;;;10.81;85.39
72961;BME280;61141;46.204;19.774;2023-04-30T01:26:13;100218.47;;;10.89;84.54
72961;BME280;61141;46.204;19.774;2023-04-30T01:29:18;100215.44;;;10.98;84.38
72961;BME280;61141;46.204;19.774;2023-04-30T01:32:22;100215.94;;;11.10;84.10
72961;BME280;61141;46.204;19.774;2023-04-30T01:42:31;100217.03;;;10.99;84.81
72961;BME280;61141;46.204;19.774;2023-04-30T01:46:33;100205.16;;;10.91;85.10
72961;BME280;61141;46.204;19.774;2023-04-30T01:49:55;100209.84;;;10.87;85.11
72961;BME280;61141;46.204;19.774;2023-04-30T01:53:01;100210.28;;;10.93;85.19
72961;BME280;61141;46.204;19.774;2023-04-30T01:56:32;100208.44;;;11.04;84.89
72961;BME280;61141;46.204;19.774;2023-04-30T01:59:40;100213.50;;;11.02;85.06
72961;BME280;61141;46.204;19.774;2023-04-30T02:02:44;100212.47;;;11.13;84.18
72961;BME280;61141;46.204;19.774;2023-04-30T02:05:48;100210.44;;;11.07;84.68
72961;BME280;61141;46.204;19.774;2023-04-30T02:08:52;100209.25;;;11.08;84.45
72961;BME280;61141;46.204;19.774;2023-04-30T02:11:55;100206.97;;;11.13;84.17
72961;BME280;61141;46.204;19.774;2023-04-30T02:15:03;100186.88;;;11.02;84.62
72961;BME280;61141;46.204;19.774;2023-04-30T02:18:06;100202.72;;;11.19;84.34
72961;BME280;61141;46.204;19.774;2023-04-30T02:21:09;100204.62;;;11.12;85.07
72961;BME280;61141;46.204;19.774;2023-04-30T02:24:13;100209.25;;;11.08;85.73
72961;BME280;61141;46.204;19.774;2023-04-30T02:27:17;100210.41;;;11.03;86.27
72961;BME280;61141;46.204;19.774;2023-04-30T02:30:20;100212.75;;;11.05;86.24
72961;BME280;61141;46.204;19.774;2023-04-30T02:33:23;100221.72;;;10.98;86.46
72961;BME280;61141;46.204;19.774;2023-04-30T02:36:26;100203.59;;;10.90;86.34
72961;BME280;61141;46.204;19.774;2023-04-30T02:39:29;100217.31;;;10.94;86.43
72961;BME280;61141;46.204;19.774;2023-04-30T02:42:32;100212.97;;;10.89;86.55
72961;BME280;61141;46.204;19.774;2023-04-30T02:45:35;100225.94;;;10.92;86.31
72961;BME280;61141;46.204;19.774;2023-04-30T02:48:38;100214.13;;;10.85;86.34
72961;BME280;61141;46.204;19.774;2023-04-30T02:51:41;100227.84;;;10.88;87.40
72961;BME280;61141;46.204;19.774;2023-04-30T02:54:44;100220.78;;;10.87;87.12
72961;BME280;61141;46.204;19.774;2023-04-30T02:57:47;100237.66;;;10.89;86.68
72961;BME280;61141;46.204;19.774;2023-04-30T03:00:50;100239.56;;;10.85;86.50
72961;BME280;61141;46.204;19.774;2023-04-30T03:03:53;100235.66;;;10.86;86.57
72961;BME280;61141;46.204;19.774;2023-04-30T03:06:57;100234.91;;;10.89;86.29
72961;BME280;61141;46.204;19.774;2023-04-30T03:09:59;100240.84;;;10.95;85.95
72961;BME280;61141;46.204;19.774;2023-04-30T03:13:03;100236.50;;;10.90;86.13
72961;BME280;61141;46.204;19.774;2023-04-30T03:16:05;100239.69;;;10.96;85.91
72961;BME280;61141;46.204;19.774;2023-04-30T03:19:08;100237.75;;;11.00;85.97
72961;BME280;61141;46.204;19.774;2023-04-30T03:22:11;100229.94;;;11.02;85.79
72961;BME280;61141;46.204;19.774;2023-04-30T03:25:14;100223.25;;;10.99;85.82
72961;BME280;61141;46.204;19.774;2023-04-30T03:28:17;100234.38;;;11.10;85.52
72961;BME280;61141;46.204;19.774;2023-04-30T03:31:20;100228.19;;;11.20;85.33
72961;BME280;61141;46.204;19.774;2023-04-30T03:34:24;100232.53;;;11.21;85.84
72961;BME280;61141;46.204;19.774;2023-04-30T03:37:27;100236.84;;;11.22;85.60
72961;BME280;61141;46.204;19.774;2023-04-30T03:40:29;100228.19;;;11.20;86.24
72961;BME280;61141;46.204;19.774;2023-04-30T03:43:32;100242.41;;;11.33;86.36
72961;BME280;61141;46.204;19.774;2023-04-30T03:46:35;100233.97;;;11.48;85.18
72961;BME280;61141;46.204;19.774;2023-04-30T03:49:38;100229.28;;;11.52;85.88
72961;BME280;61141;46.204;19.774;2023-04-30T03:52:41;100244.63;;;11.57;86.21
72961;BME280;61141;46.204;19.774;2023-04-30T03:55:45;100233.72;;;11.64;85.62
72961;BME280;61141;46.204;19.774;2023-04-30T03:58:48;100246.69;;;11.67;85.33
72961;BME280;61141;46.204;19.774;2023-04-30T04:01:51;100251.50;;;11.77;84.75
72961;BME280;61141;46.204;19.774;2023-04-30T04:04:54;100257.22;;;11.61;85.59
72961;BME280;61141;46.204;19.774;2023-04-30T04:07:57;100255.38;;;11.72;85.42
72961;BME280;61141;46.204;19.774;2023-04-30T04:11:00;100267.44;;;11.64;85.17
72961;BME280;61141;46.204;19.774;2023-04-30T04:14:03;100272.62;;;11.73;85.26
72961;BME280;61141;46.204;19.774;2023-04-30T04:17:06;100268.03;;;11.84;84.71
72961;BME280;61141;46.204;19.774;2023-04-30T04:20:10;100280.22;;;11.87;84.06
72961;BME280;61141;46.204;19.774;2023-04-30T04:23:16;100284.37;;;11.70;85.58
72961;BME280;61141;46.204;19.774;2023-04-30T04:26:18;100288.41;;;11.83;84.99
72961;BME280;61141;46.204;19.774;2023-04-30T04:29:23;100285.34;;;11.92;84.03
72961;BME280;61141;46.204;19.774;2023-04-30T04:32:26;100300.25;;;11.94;84.72
72961;BME280;61141;46.204;19.774;2023-04-30T04:35:30;100307.34;;;11.95;84.26
72961;BME280;61141;46.204;19.774;2023-04-30T04:38:33;100291.63;;;11.92;85.01
72961;BME280;61141;46.204;19.774;2023-04-30T04:41:37;100305.66;;;11.84;85.94
72961;BME280;61141;46.204;19.774;2023-04-30T04:44:40;100314.56;;;11.70;86.95
72961;BME280;61141;46.204;19.774;2023-04-30T04:47:43;100307.38;;;12.02;85.36
72961;BME280;61141;46.204;19.774;2023-04-30T04:50:46;100310.44;;;11.90;86.06
72961;BME280;61141;46.204;19.774;2023-04-30T04:53:49;100310.97;;;12.10;84.76
72961;BME280;61141;46.204;19.774;2023-04-30T04:56:52;100321.50;;;12.01;85.84
72961;BME280;61141;46.204;19.774;2023-04-30T04:59:56;100310.97;;;12.10;85.22
72961;BME280;61141;46.204;19.774;2023-04-30T05:02:59;100323.94;;;12.09;85.75
72961;BME280;61141;46.204;19.774;2023-04-30T05:06:03;100316.84;;;12.08;85.11
72961;BME280;61141;46.204;19.774;2023-04-30T05:09:06;100323.16;;;12.09;84.90
72961;BME280;61141;46.204;19.774;2023-04-30T05:12:12;100326.66;;;12.06;84.82
72961;BME280;61141;46.204;19.774;2023-04-30T05:15:15;100323.50;;;12.07;83.74
72961;BME280;61141;46.204;19.774;2023-04-30T05:18:19;100324.97;;;11.94;85.17
72961;BME280;61141;46.204;19.774;2023-04-30T05:21:22;100335.69;;;12.10;84.20
72961;BME280;61141;46.204;19.774;2023-04-30T05:24:25;100341.22;;;12.13;84.51
72961;BME280;61141;46.204;19.774;2023-04-30T05:27:28;100340.28;;;12.46;82.65
72961;BME280;61141;46.204;19.774;2023-04-30T05:30:31;100338.63;;;12.34;82.98
72961;BME280;61141;46.204;19.774;2023-04-30T05:33:34;100334.44;;;12.51;81.70
72961;BME280;61141;46.204;19.774;2023-04-30T05:36:38;100342.37;;;12.63;80.66
72961;BME280;61141;46.204;19.774;2023-04-30T05:39:42;100344.25;;;12.52;81.80
72961;BME280;61141;46.204;19.774;2023-04-30T05:42:45;100333.38;;;12.66;79.63
72961;BME280;61141;46.204;19.774;2023-04-30T05:45:48;100349.37;;;12.50;81.29
72961;BME280;61141;46.204;19.774;2023-04-30T05:48:51;100345.25;;;12.81;79.38
72961;BME280;61141;46.204;19.774;2023-04-30T05:51:54;100350.31;;;12.75;79.32
72961;BME280;61141;46.204;19.774;2023-04-30T05:54:57;100346.94;;;13.07;78.24
72961;BME280;61141;46.204;19.774;2023-04-30T05:58:00;100349.09;;;13.41;76.04
72961;BME280;61141;46.204;19.774;2023-04-30T06:01:03;100357.62;;;13.12;75.57
72961;BME280;61141;46.204;19.774;2023-04-30T06:04:07;100347.47;;;13.37;75.46
72961;BME280;61141;46.204;19.774;2023-04-30T06:07:10;100357.75;;;13.54;73.50
72961;BME280;61141;46.204;19.774;2023-04-30T06:10:15;100361.72;;;13.60;73.66
72961;BME280;61141;46.204;19.774;2023-04-30T06:13:18;100375.97;;;14.11;72.55
72961;BME280;61141;46.204;19.774;2023-04-30T06:16:21;100371.28;;;14.19;70.92
72961;BME280;61141;46.204;19.774;2023-04-30T06:19:25;100376.37;;;14.17;71.48
72961;BME280;61141;46.204;19.774;2023-04-30T06:22:29;100382.72;;;14.42;71.39
72961;BME280;61141;46.204;19.774;2023-04-30T06:25:31;100373.25;;;14.08;72.36
72961;BME280;61141;46.204;19.774;2023-04-30T06:28:34;100371.66;;;14.14;71.67
72961;BME280;61141;46.204;19.774;2023-04-30T06:31:37;100372.87;;;14.45;70.86
72961;BME280;61141;46.204;19.774;2023-04-30T06:34:40;100368.53;;;14.68;70.40
72961;BME280;61141;46.204;19.774;2023-04-30T06:37:43;100372.84;;;14.77;69.55
72961;BME280;61141;46.204;19.774;2023-04-30T06:40:46;100368.87;;;14.95;68.62
72961;BME280;61141;46.204;19.774;2023-04-30T06:43:49;100378.31;;;15.01;69.04
72961;BME280;61141;46.204;19.774;2023-04-30T06:46:52;100392.38;;;15.42;67.34
72961;BME280;61141;46.204;19.774;2023-04-30T06:49:55;100385.16;;;15.69;66.51
72961;BME280;61141;46.204;19.774;2023-04-30T06:52:58;100384.34;;;15.79;66.12
72961;BME280;61141;46.204;19.774;2023-04-30T06:56:01;100387.91;;;15.73;65.33
72961;BME280;61141;46.204;19.774;2023-04-30T06:59:05;100391.97;;;15.51;65.77
72961;BME280;61141;46.204;19.774;2023-04-30T07:02:09;100395.47;;;15.55;65.57
72961;BME280;61141;46.204;19.774;2023-04-30T07:05:12;100393.03;;;15.74;65.34
72961;BME280;61141;46.204;19.774;2023-04-30T07:08:15;100395.84;;;15.60;66.72
72961;BME280;61141;46.204;19.774;2023-04-30T07:11:19;100391.19;;;15.47;65.66
72961;BME280;61141;46.204;19.774;2023-04-30T07:14:21;100391.34;;;15.95;65.05
72961;BME280;61141;46.204;19.774;2023-04-30T07:17:24;100391.22;;;16.12;63.47
72961;BME280;61141;46.204;19.774;2023-04-30T07:20:29;100396.47;;;16.48;64.14
72961;BME280;61141;46.204;19.774;2023-04-30T07:23:33;100399.81;;;16.25;62.54
72961;BME280;61141;46.204;19.774;2023-04-30T07:26:36;100398.72;;;16.67;61.31
72961;BME280;61141;46.204;19.774;2023-04-30T07:29:39;100405.06;;;16.64;60.82
72961;BME280;61141;46.204;19.774;2023-04-30T07:32:42;100400.47;;;16.43;62.00
72961;BME280;61141;46.204;19.774;2023-04-30T07:35:45;100403.91;;;16.06;60.38
72961;BME280;61141;46.204;19.774;2023-04-30T07:38:48;100407.66;;;16.30;60.42
72961;BME280;61141;46.204;19.774;2023-04-30T07:41:51;100411.06;;;15.97;59.90
72961;BME280;61141;46.204;19.774;2023-04-30T07:44:54;100411.97;;;15.79;59.48
72961;BME280;61141;46.204;19.774;2023-04-30T07:47:57;100411.03;;;16.00;59.76
72961;BME280;61141;46.204;19.774;2023-04-30T07:51:00;100401.56;;;16.01;59.08
72961;BME280;61141;46.204;19.774;2023-04-30T07:54:03;100407.91;;;16.50;57.51
72961;BME280;61141;46.204;19.774;2023-04-30T07:57:06;100418.81;;;16.71;56.98
72961;BME280;61141;46.204;19.774;2023-04-30T08:00:10;100412.00;;;16.82;55.89
72961;BME280;61141;46.204;19.774;2023-04-30T08:03:13;100412.75;;;17.24;56.03
72961;BME280;61141;46.204;19.774;2023-04-30T08:06:16;100414.47;;;17.48;55.83
72961;BME280;61141;46.204;19.774;2023-04-30T08:09:19;100410.19;;;17.40;55.61
72961;BME280;61141;46.204;19.774;2023-04-30T08:12:22;100410.59;;;17.42;55.99
72961;BME280;61141;46.204;19.774;2023-04-30T08:15:25;100433.53;;;17.42;54.60
72961;BME280;61141;46.204;19.774;2023-04-30T08:18:30;100431.78;;;17.59;54.50
72961;BME280;61141;46.204;19.774;2023-04-30T08:21:33;100436.47;;;17.62;53.89
72961;BME280;61141;46.204;19.774;2023-04-30T08:24:36;100423.31;;;17.36;55.44
72961;BME280;61141;46.204;19.774;2023-04-30T08:27:39;100433.03;;;17.17;54.83
72961;BME280;61141;46.204;19.774;2023-04-30T08:30:42;100423.94;;;17.13;56.34
72961;BME280;61141;46.204;19.774;2023-04-30T08:33:45;100418.84;;;17.45;56.38
72961;BME280;61141;46.204;19.774;2023-04-30T08:36:48;100419.78;;;17.69;56.03
72961;BME280;61141;46.204;19.774;2023-04-30T08:39:51;100422.72;;;17.85;55.58
72961;BME280;61141;46.204;19.774;2023-04-30T08:43:06;100415.12;;;18.19;54.98
72961;BME280;61141;46.204;19.774;2023-04-30T08:46:10;100417.19;;;18.12;53.90
72961;BME280;61141;46.204;19.774;2023-04-30T08:49:15;100404.75;;;18.24;54.66
72961;BME280;61141;46.204;19.774;2023-04-30T08:52:18;100407.94;;;18.49;53.91
72961;BME280;61141;46.204;19.774;2023-04-30T08:55:22;100413.13;;;18.70;55.37
72961;BME280;61141;46.204;19.774;2023-04-30T08:58:28;100409.16;;;18.94;54.91
72961;BME280;61141;46.204;19.774;2023-04-30T09:01:38;100405.41;;;18.81;54.46
72961;BME280;61141;46.204;19.774;2023-04-30T09:04:41;100409.16;;;19.33;54.47
72961;BME280;61141;46.204;19.774;2023-04-30T09:07:44;100398.19;;;19.85;52.53
72961;BME280;61141;46.204;19.774;2023-04-30T09:10:51;100406.19;;;19.64;53.23
72961;BME280;61141;46.204;19.774;2023-04-30T09:14:00;100408.22;;;19.44;54.70
72961;BME280;61141;46.204;19.774;2023-04-30T09:17:03;100385.50;;;18.86;55.25
72961;BME280;61141;46.204;19.774;2023-04-30T09:23:10;100414.19;;;18.99;54.38
72961;BME280;61141;46.204;19.774;2023-04-30T09:26:21;100396.31;;;19.63;53.19
72961;BME280;61141;46.204;19.774;2023-04-30T09:29:45;100393.66;;;20.27;51.68
72961;BME280;61141;46.204;19.774;2023-04-30T09:32:55;100399.53;;;20.13;52.67
72961;BME280;61141;46.204;19.774;2023-04-30T09:36:08;100400.19;;;20.53;52.66
72961;BME280;61141;46.204;19.774;2023-04-30T09:39:11;100399.87;;;20.35;50.56
72961;BME280;61141;46.204;19.774;2023-04-30T09:42:18;100393.53;;;20.95;49.31
72961;BME280;61141;46.204;19.774;2023-04-30T09:45:22;100395.72;;;20.88;48.59
72961;BME280;61141;46.204;19.774;2023-04-30T09:48:26;100400.38;;;19.39;52.90
72961;BME280;61141;46.204;19.774;2023-04-30T09:51:30;100395.44;;;19.26;53.57
72961;BME280;61141;46.204;19.774;2023-04-30T09:54:34;100385.81;;;18.68;55.50
72961;BME280;61141;46.204;19.774;2023-04-30T09:57:38;100390.59;;;19.11;54.62
72961;BME280;61141;46.204;19.774;2023-04-30T10:00:42;100392.31;;;19.24;54.57
72961;BME280;61141;46.204;19.774;2023-04-30T10:03:47;100380.22;;;19.90;52.41
72961;BME280;61141;46.204;19.774;2023-04-30T10:06:53;100375.31;;;20.62;50.13
72961;BME280;61141;46.204;19.774;2023-04-30T10:10:09;100377.75;;;20.28;51.20
72961;BME280;61141;46.204;19.774;2023-04-30T10:13:18;100376.63;;;19.54;52.16
72961;BME280;61141;46.204;19.774;2023-04-30T10:19:35;100384.91;;;20.45;52.38
72961;BME280;61141;46.204;19.774;2023-04-30T10:22:41;100377.88;;;20.40;52.60
72961;BME280;61141;46.204;19.774;2023-04-30T10:25:46;100373.50;;;19.71;53.17
72961;BME280;61141;46.204;19.774;2023-04-30T10:28:50;100370.09;;;19.44;54.20
72961;BME280;61141;46.204;19.774;2023-04-30T10:31:55;100363.59;;;19.51;54.39
72961;BME280;61141;46.204;19.774;2023-04-30T10:35:09;100358.13;;;20.35;51.63
72961;BME280;61141;46.204;19.774;2023-04-30T10:38:14;100334.75;;;21.06;49.78
72961;BME280;61141;46.204;19.774;2023-04-30T10:41:20;100361.28;;;20.82;49.61
72961;BME280;61141;46.204;19.774;2023-04-30T10:44:24;100350.25;;;20.14;51.12
72961;BME280;61141;46.204;19.774;2023-04-30T10:47:28;100341.91;;;19.98;51.62
72961;BME280;61141;46.204;19.774;2023-04-30T10:50:32;100355.22;;;20.22;51.38
72961;BME280;61141;46.204;19.774;2023-04-30T10:53:35;100345.66;;;20.56;49.09
72961;BME280;61141;46.204;19.774;2023-04-30T10:56:38;100337.81;;;21.24;47.01
72961;BME280;61141;46.204;19.774;2023-04-30T10:59:42;100352.44;;;20.71;47.63
72961;BME280;61141;46.204;19.774;2023-04-30T11:02:55;100344.25;;;21.37;45.85
72961;BME280;61141;46.204;19.774;2023-04-30T11:06:07;100344.25;;;21.08;46.24
72961;BME280;61141;46.204;19.774;2023-04-30T11:09:11;100349.78;;;20.80;47.03
72961;BME280;61141;46.204;19.774;2023-04-30T11:12:19;100345.19;;;21.18;44.88
72961;BME280;61141;46.204;19.774;2023-04-30T11:15:29;100332.69;;;20.94;44.83
72961;BME280;61141;46.204;19.774;2023-04-30T11:18:33;100324.19;;;21.80;43.41
72961;BME280;61141;46.204;19.774;2023-04-30T11:25:11;100337.59;;;20.90;43.96
72961;BME280;61141;46.204;19.774;2023-04-30T11:28:21;100334.00;;;21.59;41.92
72961;BME280;61141;46.204;19.774;2023-04-30T11:31:32;100335.25;;;21.84;41.56
72961;BME280;61141;46.204;19.774;2023-04-30T11:34:36;100334.59;;;22.05;42.30
72961;BME280;61141;46.204;19.774;2023-04-30T11:37:41;100342.78;;;20.88;41.69
72961;BME280;61141;46.204;19.774;2023-04-30T11:40:46;100323.06;;;21.40;40.95
72961;BME280;61141;46.204;19.774;2023-04-30T11:43:50;100336.22;;;21.39;41.39
72961;BME280;61141;46.204;19.774;2023-04-30T11:46:53;100323.91;;;22.03;41.28
72961;BME280;61141;46.204;19.774;2023-04-30T11:49:56;100322.66;;;21.13;42.39
72961;BME280;61141;46.204;19.774;2023-04-30T11:52:59;100318.25;;;21.40;41.79
72961;BME280;61141;46.204;19.774;2023-04-30T11:56:07;100319.41;;;21.81;40.15
72961;BME280;61141;46.204;19.774;2023-04-30T11:59:11;100313.50;;;21.79;39.24
72961;BME280;61141;46.204;19.774;2023-04-30T12:02:15;100309.28;;;22.12;39.28
72961;BME280;61141;46.204;19.774;2023-04-30T12:05:20;100301.13;;;22.64;36.94
72961;BME280;61141;46.204;19.774;2023-04-30T12:08:23;100298.78;;;22.85;37.83
72961;BME280;61141;46.204;19.774;2023-04-30T12:11:28;100303.84;;;22.99;36.86
72961;BME280;61141;46.204;19.774;2023-04-30T12:14:31;100302.75;;;23.18;37.58
72961;BME280;61141;46.204;19.774;2023-04-30T12:17:36;100301.31;;;22.70;37.71
72961;BME280;61141;46.204;19.774;2023-04-30T12:20:40;100301.16;;;22.39;37.00
72961;BME280;61141;46.204;19.774;2023-04-30T12:23:44;100302.47;;;22.81;36.17
72961;BME280;61141;46.204;19.774;2023-04-30T12:26:46;100301.59;;;22.38;37.61
72961;BME280;61141;46.204;19.774;2023-04-30T12:29:50;100295.94;;;22.29;38.61
72961;BME280;61141;46.204;19.774;2023-04-30T12:32:58;100300.38;;;22.73;39.25
72961;BME280;61141;46.204;19.774;2023-04-30T12:36:02;100287.41;;;21.98;39.54
72961;BME280;61141;46.204;19.774;2023-04-30T12:39:06;100286.69;;;21.18;40.81
72961;BME280;61141;46.204;19.774;2023-04-30T12:42:17;100286.66;;;20.89;41.99
72961;BME280;61141;46.204;19.774;2023-04-30T12:45:46;100291.47;;;21.30;41.04
72961;BME280;61141;46.204;19.774;2023-04-30T12:48:50;100286.84;;;21.90;38.77
72961;BME280;61141;46.204;19.774;2023-04-30T12:52:10;100276.56;;;21.75;37.86
72961;BME280;61141;46.204;19.774;2023-04-30T12:55:17;100268.13;;;22.59;36.11
72961;BME280;61141;46.204;19.774;2023-04-30T12:58:21;100276.19;;;22.57;35.61
72961;BME280;61141;46.204;19.774;2023-04-30T13:01:24;100256.81;;;22.41;35.53
72961;BME280;61141;46.204;19.774;2023-04-30T13:04:27;100261.34;;;22.82;35.69
72961;BME280;61141;46.204;19.774;2023-04-30T13:07:37;100245.78;;;22.72;36.48
72961;BME280;61141;46.204;19.774;2023-04-30T13:10:42;100272.56;;;21.76;39.11
72961;BME280;61141;46.204;19.774;2023-04-30T13:13:46;100259.59;;;22.07;38.81
72961;BME280;61141;46.204;19.774;2023-04-30T13:16:49;100255.03;;;21.37;38.71
72961;BME280;61141;46.204;19.774;2023-04-30T13:19:52;100236.38;;;20.68;39.81
72961;BME280;61141;46.204;19.774;2023-04-30T13:22:55;100258.91;;;21.27;39.73
72961;BME280;61141;46.204;19.774;2023-04-30T13:25:59;100251.13;;;21.98;38.81
72961;BME280;61141;46.204;19.774;2023-04-30T13:29:02;100253.50;;;22.68;37.56
72961;BME280;61141;46.204;19.774;2023-04-30T13:32:06;100254.16;;;22.38;37.94
72961;BME280;61141;46.204;19.774;2023-04-30T13:35:10;100240.19;;;21.78;39.53
72961;BME280;61141;46.204;19.774;2023-04-30T13:38:13;100250.25;;;21.50;40.35
72961;BME280;61141;46.204;19.774;2023-04-30T13:41:16;100257.72;;;21.53;40.19
72961;BME280;61141;46.204;19.774;2023-04-30T13:44:19;100267.06;;;21.47;40.76
72961;BME280;61141;46.204;19.774;2023-04-30T13:47:22;100265.06;;;21.85;41.09
72961;BME280;61141;46.204;19.774;2023-04-30T13:50:25;100253.16;;;21.59;41.14
72961;BME280;61141;46.204;19.774;2023-04-30T13:53:28;100274.87;;;20.98;42.37
72961;BME280;61141;46.204;19.774;2023-04-30T13:56:31;100277.34;;;20.96;43.36
72961;BME280;61141;46.204;19.774;2023-04-30T13:59:34;100286.19;;;20.33;47.86
72961;BME280;61141;46.204;19.774;2023-04-30T14:02:37;100285.06;;;19.82;50.26
72961;BME280;61141;46.204;19.774;2023-04-30T14:05:40;100286.09;;;19.72;51.33
72961;BME280;61141;46.204;19.774;2023-04-30T14:08:43;100287.06;;;19.66;51.26
72961;BME280;61141;46.204;19.774;2023-04-30T14:11:46;100285.41;;;19.84;51.42
72961;BME280;61141;46.204;19.774;2023-04-30T14:14:49;100288.37;;;20.10;50.79
72961;BME280;61141;46.204;19.774;2023-04-30T14:17:52;100280.38;;;20.12;50.65
72961;BME280;61141;46.204;19.774;2023-04-30T14:20:55;100277.59;;;20.73;48.27
72961;BME280;61141;46.204;19.774;2023-04-30T14:23:58;100282.50;;;20.52;49.22
72961;BME280;61141;46.204;19.774;2023-04-30T14:27:01;100280.63;;;20.17;50.94
72961;BME280;61141;46.204;19.774;2023-04-30T14:30:05;100290.22;;;20.61;49.19
72961;BME280;61141;46.204;19.774;2023-04-30T14:33:09;100289.56;;;20.86;48.69
72961;BME280;61141;46.204;19.774;2023-04-30T14:36:14;100284.09;;;21.11;48.64
72961;BME280;61141;46.204;19.774;2023-04-30T14:39:17;100285.16;;;20.43;50.14
72961;BME280;61141;46.204;19.774;2023-04-30T14:42:20;100288.44;;;20.22;49.85
72961;BME280;61141;46.204;19.774;2023-04-30T14:45:23;100283.91;;;20.44;50.06
72961;BME280;61141;46.204;19.774;2023-04-30T14:48:26;100287.25;;;19.91;50.96
72961;BME280;61141;46.204;19.774;2023-04-30T14:51:29;100291.03;;;19.81;51.74
72961;BME280;61141;46.204;19.774;2023-04-30T14:54:33;100285.13;;;19.63;52.39
72961;BME280;61141;46.204;19.774;2023-04-30T14:57:36;100289.66;;;19.89;51.21
72961;BME280;61141;46.204;19.774;2023-04-30T15:00:39;100284.75;;;19.61;52.36
72961;BME280;61141;46.204;19.774;2023-04-30T15:03:42;100288.19;;;19.84;52.01
72961;BME280;61141;46.204;19.774;2023-04-30T15:06:46;100294.34;;;19.76;51.85
72961;BME280;61141;46.204;19.774;2023-04-30T15:09:49;100310.47;;;19.49;52.65
72961;BME280;61141;46.204;19.774;2023-04-30T15:12:52;100304.94;;;19.81;52.98
72961;BME280;61141;46.204;19.774;2023-04-30T15:15:55;100307.47;;;19.91;51.55
72961;BME280;61141;46.204;19.774;2023-04-30T15:18:58;100306.34;;;19.89;51.36
72961;BME280;61141;46.204;19.774;2023-04-30T15:22:01;100306.66;;;20.72;49.39
72961;BME280;61141;46.204;19.774;2023-04-30T15:25:05;100315.34;;;21.02;49.18
72961;BME280;61141;46.204;19.774;2023-04-30T15:28:07;100307.53;;;20.69;49.44
72961;BME280;61141;46.204;19.774;2023-04-30T15:31:10;100311.56;;;20.35;50.14
72961;BME280;61141;46.204;19.774;2023-04-30T15:34:13;100316.06;;;20.13;50.74
72961;BME280;61141;46.204;19.774;2023-04-30T15:37:16;100308.97;;;19.96;51.30
72961;BME280;61141;46.204;19.774;2023-04-30T15:40:19;100309.50;;;19.91;51.51
72961;BME280;61141;46.204;19.774;2023-04-30T15:43:22;100312.28;;;20.07;51.02
72961;BME280;61141;46.204;19.774;2023-04-30T15:46:25;100301.41;;;20.13;50.60
72961;BME280;61141;46.204;19.774;2023-04-30T15:49:28;100310.75;;;19.70;52.40
72961;BME280;61141;46.204;19.774;2023-04-30T15:52:31;100318.84;;;19.97;51.68
72961;BME280;61141;46.204;19.774;2023-04-30T15:55:35;100320.22;;;19.73;51.85
72961;BME280;61141;46.204;19.774;2023-04-30T15:58:38;100311.63;;;19.67;51.46
72961;BME280;61141;46.204;19.774;2023-04-30T16:01:42;100314.66;;;19.73;51.39
72961;BME280;61141;46.204;19.774;2023-04-30T16:04:45;100317.03;;;19.74;51.70
72961;BME280;61141;46.204;19.774;2023-04-30T16:07:48;100309.88;;;19.57;52.15
72961;BME280;61141;46.204;19.774;2023-04-30T16:10:51;100313.84;;;19.36;53.31
72961;BME280;61141;46.204;19.774;2023-04-30T16:13:54;100313.03;;;19.40;53.39
72961;BME280;61141;46.204;19.774;2023-04-30T16:16:57;100313.03;;;19.40;53.27